Time;durP1;ratioP1;P1;durP2;ratioP2;P2;SDS_P1;SDS_P2;PMS_P1;PMS_P2;Temp;Humidity;BMP_temperature;BMP_pressure;BME280_temperature;BME280_humidity;BME280_pressure;Samples;Min_cycle;Max_cycle;Signal;HPM_P1;HPM_P2
2021/12/19 00:10:19;;;;;;;94.43;39.08;;;128.20;2252.80;;;;;;4932534;29;20533;-61
2021/12/19 00:12:45;;;;;;;213.05;92.97;;;128.10;2252.80;;;;;;4932434;29;20040;-61
2021/12/19 00:15:11;;;;;;;125.68;54.83;;;128.20;2252.80;;;;;;4932378;29;20032;-63
2021/12/19 00:17:36;;;;;;;38.92;21.88;;;128.10;2252.80;;;;;;4932470;29;20024;-62
2021/12/19 00:20:03;;;;;;;62.53;29.63;;;128.10;2252.80;;;;;;4932190;29;20061;-62
2021/12/19 00:22:28;;;;;;;49.40;23.27;;;128.10;2252.80;;;;;;4932407;29;20089;-62
2021/12/19 00:24:54;;;;;;;48.22;24.98;;;128.10;2252.80;;;;;;4932061;29;20458;-62
2021/12/19 00:27:21;;;;;;;161.43;76.63;;;128.00;2252.80;;;;;;4932357;29;20034;-61
2021/12/19 00:29:47;;;;;;;112.22;55.22;;;128.00;2252.80;;;;;;4932314;29;20023;-61
2021/12/19 00:32:13;;;;;;;89.30;45.40;;;128.00;2252.80;;;;;;4931908;29;20082;-62
2021/12/19 00:34:38;;;;;;;198.85;92.75;;;128.00;2252.80;;;;;;4932133;29;20056;-62
2021/12/19 00:37:04;;;;;;;95.40;47.70;;;128.00;2252.80;;;;;;4931910;29;20072;-62
2021/12/19 00:39:30;;;;;;;93.40;48.60;;;128.10;2252.80;;;;;;4916556;29;20043;-62
2021/12/19 00:41:56;;;;;;;106.47;51.65;;;128.20;2252.80;;;;;;4931796;29;20490;-61
2021/12/19 00:44:24;;;;;;;90.30;44.65;;;128.10;2252.80;;;;;;4961746;28;20037;-61
2021/12/19 00:46:53;;;;;;;62.15;32.33;;;128.10;2252.80;;;;;;5011705;28;20365;-62
2021/12/19 00:49:22;;;;;;;83.20;40.67;;;128.10;2252.80;;;;;;5011603;28;20101;-62
2021/12/19 00:51:48;;;;;;;106.72;59.03;;;128.30;2252.80;;;;;;5011466;28;20030;-62
2021/12/19 00:54:14;;;;;;;155.52;79.28;;;128.20;2252.80;;;;;;5011150;28;20026;-62
2021/12/19 00:56:45;;;;;;;83.47;46.10;;;128.20;2252.80;;;;;;5011232;28;20049;-61
2021/12/19 00:59:11;;;;;;;54.88;30.15;;;128.40;2252.80;;;;;;4993118;28;20033;-62
2021/12/19 01:01:38;;;;;;;47.20;26.40;;;128.40;2252.80;;;;;;5011199;28;20087;-62
2021/12/19 01:04:10;;;;;;;32.40;20.75;;;128.30;2252.80;;;;;;5010830;28;20084;-62
2021/12/19 01:06:37;;;;;;;31.45;15.35;;;128.30;2252.80;;;;;;5010982;28;20034;-62
2021/12/19 01:09:04;;;;;;;25.77;14.05;;;128.30;2252.80;;;;;;5010855;28;20029;-62
2021/12/19 01:11:29;;;;;;;25.85;15.32;;;128.30;2252.80;;;;;;5010979;28;20045;-62
2021/12/19 01:13:56;;;;;;;54.78;33.92;;;128.30;2252.80;;;;;;5011388;28;20026;-62
2021/12/19 01:16:22;;;;;;;30.05;19.42;;;128.20;2252.80;;;;;;5010197;28;20028;-61
2021/12/19 01:18:48;;;;;;;58.30;32.83;;;128.30;2252.80;;;;;;5010972;28;20105;-62
2021/12/19 01:21:14;;;;;;;24.60;17.67;;;128.20;2252.80;;;;;;5010603;28;20065;-62
2021/12/19 01:23:40;;;;;;;22.60;14.25;;;128.10;2252.80;;;;;;5010521;28;20034;-62
2021/12/19 01:26:06;;;;;;;52.63;28.90;;;128.10;2252.80;;;;;;5010736;28;20033;-62
2021/12/19 01:28:32;;;;;;;18.70;12.00;;;128.10;2252.80;;;;;;5010475;28;20034;-62
2021/12/19 01:30:58;;;;;;;18.15;11.45;;;128.10;2252.80;;;;;;5010820;28;20021;-61
2021/12/19 01:33:23;;;;;;;41.67;22.95;;;128.20;2252.80;;;;;;5010117;28;20046;-62
2021/12/19 01:35:49;;;;;;;21.00;13.43;;;128.20;2252.80;;;;;;5010731;28;20034;-61
2021/12/19 01:38:15;;;;;;;24.17;14.65;;;128.20;2252.80;;;;;;5010641;28;20396;-61
2021/12/19 01:40:41;;;;;;;21.02;13.13;;;128.20;2252.80;;;;;;5010148;28;20029;-62
2021/12/19 01:43:07;;;;;;;29.48;17.92;;;128.20;2252.80;;;;;;5010804;28;20443;-62
2021/12/19 01:45:37;;;;;;;15.65;10.18;;;128.10;2252.80;;;;;;5010266;28;20022;-62
2021/12/19 01:48:05;;;;;;;24.10;12.10;;;128.00;2252.80;;;;;;5010288;28;20022;-62
2021/12/19 01:50:33;;;;;;;19.42;12.73;;;128.00;2252.80;;;;;;5010354;28;20037;-62
2021/12/19 01:53:04;;;;;;;65.75;34.00;;;128.00;2252.80;;;;;;5010447;28;20087;-62
2021/12/19 01:55:31;;;;;;;31.35;16.10;;;128.00;2252.80;;;;;;5009910;28;20029;-63
2021/12/19 01:57:56;;;;;;;36.35;21.83;;;128.00;2252.80;;;;;;5010506;28;20034;-61
2021/12/19 02:00:35;;;;;;;21.63;10.75;;;128.10;2252.80;;;;;;5010264;28;20461;-61
2021/12/19 02:03:01;;;;;;;17.75;12.15;;;128.10;2252.80;;;;;;5010017;28;20045;-62
2021/12/19 02:05:28;;;;;;;56.88;47.92;;;128.10;2252.80;;;;;;5010457;28;20038;-62
2021/12/19 02:07:55;;;;;;;21.13;14.10;;;128.10;2252.80;;;;;;5010126;28;20376;-63
2021/12/19 02:10:25;;;;;;;21.25;12.82;;;128.10;2252.80;;;;;;5009952;28;20038;-63
2021/12/19 02:12:52;;;;;;;20.73;14.32;;;128.10;2252.80;;;;;;5009941;28;20504;-63
2021/12/19 02:15:21;;;;;;;21.23;13.27;;;128.10;2252.80;;;;;;5010212;28;20079;-63
2021/12/19 02:17:50;;;;;;;17.13;10.23;;;128.10;2252.80;;;;;;5010386;28;20026;-63
2021/12/19 02:20:16;;;;;;;14.48;8.38;;;128.10;2252.80;;;;;;5010346;28;20149;-63
2021/12/19 02:22:43;;;;;;;14.85;9.95;;;128.20;2252.80;;;;;;4992295;28;20034;-63
2021/12/19 02:25:10;;;;;;;16.77;10.05;;;128.10;2252.80;;;;;;5010193;28;20026;-63
2021/12/19 02:27:36;;;;;;;14.48;8.50;;;128.10;2252.80;;;;;;5010917;28;20026;-63
2021/12/19 02:30:05;;;;;;;21.27;13.35;;;128.10;2252.80;;;;;;5013929;28;20053;-62
2021/12/19 02:32:32;;;;;;;21.70;16.35;;;128.10;2252.80;;;;;;5013577;28;20037;-63
2021/12/19 02:35:01;;;;;;;33.00;19.90;;;128.00;2252.80;;;;;;5014034;28;20042;-63
2021/12/19 02:40:30;;;;;;;20.70;13.07;;;103.30;2227.20;;;;;;5013864;28;20029;-62
2021/12/19 02:48:45;;;;;;;23.65;13.98;;;103.30;2227.20;;;;;;4953267;29;20098;-62
2021/12/19 02:51:11;;;;;;;28.92;15.60;;;103.20;2227.20;;;;;;4953040;29;20509;-62
2021/12/19 02:53:42;;;;;;;22.75;12.27;;;103.20;2227.20;;;;;;4953273;29;20047;-62
2021/12/19 02:56:10;;;;;;;23.10;13.38;;;103.30;2227.20;;;;;;4953129;29;20031;-62
2021/12/19 02:58:39;;;;;;;15.13;8.40;;;103.30;2227.20;;;;;;4953217;29;20031;-62
2021/12/19 03:01:12;;;;;;;31.20;17.63;;;103.20;2227.20;;;;;;4952756;29;20074;-62
2021/12/19 03:03:38;;;;;;;14.88;8.10;;;103.30;2227.20;;;;;;4952945;29;20031;-62
2021/12/19 03:06:05;;;;;;;17.17;9.02;;;103.30;2227.20;;;;;;4952651;29;20041;-62
2021/12/19 03:08:32;;;;;;;19.13;11.15;;;103.30;2227.20;;;;;;4952749;29;20050;-62
2021/12/19 03:18:55;;;;;;;15.40;6.68;;;128.00;2252.80;;;;;;4968451;28;20107;-62
2021/12/19 03:21:24;;;;;;;16.65;8.25;;;128.00;2252.80;;;;;;5012775;28;20461;-62
2021/12/19 03:23:50;;;;;;;15.68;8.93;;;128.10;2252.80;;;;;;5013044;28;20048;-62
2021/12/19 03:26:16;;;;;;;17.23;8.70;;;128.10;2252.80;;;;;;5012844;28;20025;-62
2021/12/19 03:28:41;;;;;;;18.70;8.65;;;128.10;2252.80;;;;;;5012916;28;20037;-62
2021/12/19 03:31:07;;;;;;;16.95;9.27;;;128.10;2252.80;;;;;;5013052;28;20396;-62
2021/12/19 03:33:35;;;;;;;19.13;12.18;;;128.00;2252.80;;;;;;5012458;28;20034;-62
2021/12/19 03:36:02;;;;;;;28.10;14.50;;;128.10;2252.80;;;;;;5012779;28;20034;-62
2021/12/19 03:38:28;;;;;;;19.30;8.65;;;128.10;2252.80;;;;;;5012367;28;20026;-62
2021/12/19 03:43:38;;;;;;;18.17;10.93;;;128.20;2252.80;;;;;;5012748;28;20076;-62
2021/12/19 03:46:04;;;;;;;17.13;10.40;;;128.20;2252.80;;;;;;5012774;28;20030;-62
2021/12/19 03:48:30;;;;;;;17.67;8.57;;;128.10;2252.80;;;;;;5012687;28;20373;-63
2021/12/19 03:50:56;;;;;;;14.52;8.48;;;128.10;2252.80;;;;;;5012617;28;20024;-62
2021/12/19 03:53:22;;;;;;;20.60;10.18;;;128.10;2252.80;;;;;;5012319;28;20041;-62
2021/12/19 03:55:50;;;;;;;24.25;13.43;;;128.00;2252.80;;;;;;5012384;28;20085;-62
2021/12/19 03:58:17;;;;;;;13.15;8.00;;;128.00;2252.80;;;;;;5012343;28;20468;-62
2021/12/19 04:00:43;;;;;;;15.93;8.80;;;128.00;2252.80;;;;;;5012085;28;20037;-62
2021/12/19 04:03:10;;;;;;;20.05;12.10;;;128.00;2252.80;;;;;;5012164;28;20034;-62
2021/12/19 04:05:40;;;;;;;27.05;13.15;;;128.00;2252.80;;;;;;5012275;28;20033;-62
2021/12/19 04:08:06;;;;;;;24.92;13.10;;;128.00;2252.80;;;;;;5012120;28;20025;-62
2021/12/19 04:10:31;;;;;;;19.83;8.40;;;128.00;2252.80;;;;;;5011913;28;20072;-63
2021/12/19 04:12:57;;;;;;;24.88;11.82;;;128.00;2252.80;;;;;;5012349;28;20101;-62
2021/12/19 04:15:23;;;;;;;15.82;9.35;;;128.00;2252.80;;;;;;5011915;28;20033;-62
2021/12/19 04:17:50;;;;;;;14.43;9.60;;;128.00;2252.80;;;;;;5012045;28;20036;-62
2021/12/19 04:20:18;;;;;;;22.13;11.80;;;103.30;2227.20;;;;;;5011775;28;20483;-62
2021/12/19 04:22:45;;;;;;;29.65;14.30;;;103.30;2227.20;;;;;;5011624;28;20088;-63
2021/12/19 04:25:11;;;;;;;22.10;11.10;;;128.00;2252.80;;;;;;5011635;28;20025;-62
2021/12/19 04:27:37;;;;;;;19.08;9.90;;;128.10;2252.80;;;;;;5011995;28;20091;-62
2021/12/19 04:30:05;;;;;;;19.35;10.07;;;128.10;2252.80;;;;;;5011608;28;20459;-62
2021/12/19 04:32:36;;;;;;;14.55;9.40;;;128.20;2252.80;;;;;;5011372;28;20133;-62
2021/12/19 04:35:02;;;;;;;15.40;8.93;;;128.20;2252.80;;;;;;4993743;28;20057;-62
2021/12/19 05:15:47;;;;;;;16.27;11.10;;;128.10;2252.80;;;;;;4893501;29;20121;-62
2021/12/19 05:18:13;;;;;;;15.40;11.85;;;128.20;2252.80;;;;;;4893383;29;20112;-62
2021/12/19 05:20:42;;;;;;;14.75;10.13;;;128.30;2252.80;;;;;;4947995;29;20118;-62
2021/12/19 05:23:21;;;;;;;18.23;11.70;;;128.30;2252.80;;;;;;4950556;29;20047;-63
2021/12/19 05:25:46;;;;;;;18.65;11.13;;;128.30;2252.80;;;;;;4950483;29;20031;-62
2021/12/19 05:28:12;;;;;;;20.10;10.98;;;128.40;2252.80;;;;;;4950282;29;20050;-62
2021/12/19 05:30:38;;;;;;;16.88;11.20;;;128.40;2252.80;;;;;;4950377;29;20426;-63
2021/12/19 05:33:05;;;;;;;17.83;11.35;;;128.30;2252.80;;;;;;4950017;29;20090;-63
2021/12/19 05:46:21;;;;;;;32.15;19.63;;;128.60;2252.80;;;;;;5010571;28;20036;-62
2021/12/19 05:48:47;;;;;;;25.65;14.50;;;128.60;2252.80;;;;;;5010479;28;20029;-63
2021/12/19 05:51:12;;;;;;;22.85;14.02;;;128.60;2252.80;;;;;;5010438;28;20034;-62
2021/12/19 05:53:38;;;;;;;23.95;16.02;;;128.60;2252.80;;;;;;5010630;28;20026;-63
2021/12/19 05:56:04;;;;;;;20.85;14.00;;;128.70;2252.80;;;;;;5010213;28;20114;-63
2021/12/19 05:58:30;;;;;;;25.63;16.17;;;128.60;2252.80;;;;;;5010537;28;20033;-62
2021/12/19 06:00:55;;;;;;;21.92;11.13;;;128.70;2252.80;;;;;;5010199;28;20112;-62
2021/12/19 06:03:21;;;;;;;16.10;10.00;;;128.80;2252.80;;;;;;5009897;28;20177;-62
2021/12/19 06:05:47;;;;;;;17.10;9.45;;;128.90;2252.80;;;;;;5010395;28;20088;-62
2021/12/19 06:08:13;;;;;;;22.38;12.70;;;128.90;2252.80;;;;;;5010082;28;20073;-62
2021/12/19 06:10:38;;;;;;;19.83;13.90;;;128.90;2252.80;;;;;;5010448;28;20428;-62
2021/12/19 06:13:04;;;;;;;29.83;15.63;;;128.90;2252.80;;;;;;5010250;28;20488;-63
2021/12/19 06:15:31;;;;;;;19.17;12.82;;;128.70;2252.80;;;;;;5010265;28;20528;-62
2021/12/19 06:17:57;;;;;;;16.75;12.52;;;128.90;2252.80;;;;;;5010305;28;20476;-62
2021/12/19 06:20:25;;;;;;;16.13;10.07;;;128.80;2252.80;;;;;;5009993;28;20054;-63
2021/12/19 06:22:51;;;;;;;18.02;9.60;;;128.90;2252.80;;;;;;5010353;28;20064;-62
2021/12/19 06:25:17;;;;;;;23.08;11.13;;;128.90;2252.80;;;;;;5010150;28;20469;-62
2021/12/19 06:27:42;;;;;;;18.02;10.38;;;128.90;2252.80;;;;;;5009864;28;20033;-63
2021/12/19 06:30:10;;;;;;;14.55;9.13;;;128.90;2252.80;;;;;;5010140;28;20026;-63
2021/12/19 06:32:35;;;;;;;26.90;15.88;;;128.90;2252.80;;;;;;5009747;28;20033;-62
2021/12/19 06:35:07;;;;;;;25.92;15.68;;;153.60;2252.80;;;;;;5009792;28;20393;-62
2021/12/19 06:37:37;;;;;;;45.20;22.20;;;128.90;2252.80;;;;;;5009781;28;20026;-63
2021/12/19 06:40:05;;;;;;;26.45;16.75;;;153.60;2252.80;;;;;;5009750;28;20030;-63
2021/12/19 06:42:31;;;;;;;19.02;11.75;;;153.70;2252.80;;;;;;5009859;28;20034;-62
2021/12/19 06:44:57;;;;;;;46.05;23.30;;;153.70;2252.80;;;;;;5010106;28;20028;-62
2021/12/19 06:47:22;;;;;;;62.35;36.38;;;153.70;2252.80;;;;;;5009697;28;20373;-63
2021/12/19 06:49:48;;;;;;;113.25;69.13;;;153.80;2252.80;;;;;;5009967;28;20490;-62
2021/12/19 06:52:14;;;;;;;44.03;28.63;;;153.80;2252.80;;;;;;4992373;28;20037;-62
2021/12/19 06:54:40;;;;;;;30.67;22.70;;;153.80;2252.80;;;;;;5010040;28;20032;-62
2021/12/19 06:57:05;;;;;;;40.03;25.70;;;153.90;2252.80;;;;;;5009545;28;20029;-62
2021/12/19 06:59:31;;;;;;;20.67;12.50;;;154.00;2252.80;;;;;;5009555;28;20029;-62
2021/12/19 07:01:57;;;;;;;30.20;21.98;;;154.10;2252.80;;;;;;5009776;28;20035;-63
2021/12/19 07:04:23;;;;;;;42.30;26.83;;;154.10;2252.80;;;;;;5009541;28;20370;-62
2021/12/19 07:06:48;;;;;;;54.83;39.30;;;154.20;2252.80;;;;;;5009814;28;20491;-63
2021/12/19 07:09:14;;;;;;;38.05;23.77;;;154.10;2252.80;;;;;;5009696;28;20018;-63
2021/12/19 07:11:40;;;;;;;28.80;18.48;;;154.10;2252.80;;;;;;5009746;28;20175;-62
2021/12/19 07:14:05;;;;;;;28.77;22.92;;;154.20;2252.80;;;;;;5011270;28;20462;-62
2021/12/19 07:16:31;;;;;;;29.85;20.80;;;154.30;2252.80;;;;;;5012932;28;20487;-62
2021/12/19 07:18:57;;;;;;;41.00;25.73;;;154.10;2252.80;;;;;;5013214;28;20032;-62
2021/12/19 07:21:24;;;;;;;34.25;21.73;;;154.30;2252.80;;;;;;5012663;28;20468;-62
2021/12/19 07:23:50;;;;;;;25.25;19.52;;;154.30;2252.80;;;;;;5013094;28;20120;-63
2021/12/19 07:26:16;;;;;;;21.77;17.35;;;154.50;2252.80;;;;;;5013063;28;20057;-62
2021/12/19 07:28:45;;;;;;;29.02;20.15;;;179.20;2252.80;;;;;;5012775;28;20057;-63
2021/12/19 07:31:11;;;;;;;134.23;75.13;;;179.40;2252.80;;;;;;5012762;28;20064;-63
2021/12/19 07:33:37;;;;;;;143.88;81.57;;;179.40;2252.80;;;;;;5012541;28;20476;-63
2021/12/19 07:36:03;;;;;;;86.85;49.35;;;179.60;2252.80;;;;;;5012896;28;20048;-63
2021/12/19 07:38:35;;;;;;;44.47;25.50;;;179.70;2252.80;;;;;;5013116;28;20117;-63
2021/12/19 07:41:02;;;;;;;31.98;18.42;;;179.60;2252.80;;;;;;5012524;28;20038;-63
2021/12/19 07:43:28;;;;;;;34.28;19.63;;;179.70;2252.80;;;;;;5012902;28;20030;-63
2021/12/19 07:45:55;;;;;;;29.13;19.75;;;179.80;2252.80;;;;;;5012546;28;20026;-63
2021/12/19 07:48:21;;;;;;;39.63;27.83;;;179.60;2252.80;;;;;;5012360;28;20117;-63
2021/12/19 07:50:46;;;;;;;36.55;26.23;;;179.60;2252.80;;;;;;5012803;28;20121;-62
2021/12/19 07:53:12;;;;;;;55.17;37.13;;;179.50;2252.80;;;;;;5012304;28;20117;-63
2021/12/19 07:55:38;;;;;;;62.85;39.90;;;179.60;2252.80;;;;;;5011911;28;20030;-62
2021/12/19 07:58:04;;;;;;;43.60;27.80;;;179.50;2252.80;;;;;;5012265;28;20030;-61
2021/12/19 08:00:30;;;;;;;48.65;30.48;;;179.80;2252.80;;;;;;5012485;28;20713;-62
2021/12/19 08:02:56;;;;;;;27.15;17.13;;;179.70;2252.80;;;;;;5012289;28;20042;-63
2021/12/19 08:05:22;;;;;;;25.00;17.23;;;179.80;2252.80;;;;;;5012321;28;20084;-63
2021/12/19 08:07:54;;;;;;;219.68;187.68;;;179.70;2252.80;;;;;;5012475;28;20022;-62
2021/12/19 08:12:49;;;;;;;50.20;36.75;;;179.70;2252.80;;;;;;5012130;28;20053;-62
2021/12/19 08:15:15;;;;;;;26.52;20.27;;;179.80;2252.80;;;;;;5011786;28;20030;-62
2021/12/19 08:17:41;;;;;;;22.90;14.05;;;179.80;2252.80;;;;;;5011832;28;20018;-62
2021/12/19 08:20:11;;;;;;;21.48;10.18;;;179.80;2252.80;;;;;;5012063;28;20380;-62
2021/12/19 08:22:37;;;;;;;38.03;32.15;;;179.80;2252.80;;;;;;5012082;28;20107;-62
2021/12/19 08:25:05;;;;;;;12.55;8.82;;;179.90;2252.80;;;;;;5011651;28;20022;-62
2021/12/19 08:27:33;;;;;;;15.43;8.13;;;180.10;2252.80;;;;;;5011582;28;20045;-62
2021/12/19 08:29:58;;;;;;;75.90;43.33;;;180.00;2252.80;;;;;;5012041;28;20050;-62
2021/12/19 08:32:25;;;;;;;24.50;15.75;;;180.00;2252.80;;;;;;5011403;28;20073;-62
2021/12/19 08:34:51;;;;;;;25.52;15.40;;;204.80;2252.80;;;;;;5011337;28;20057;-62
2021/12/19 08:37:17;;;;;;;17.98;16.20;;;205.10;2252.80;;;;;;4993861;28;20029;-61
2021/12/19 08:39:46;;;;;;;19.63;14.20;;;205.10;2252.80;;;;;;5011394;28;20018;-62
2021/12/19 08:42:12;;;;;;;19.63;12.23;;;205.00;2252.80;;;;;;5011373;28;20045;-62
2021/12/19 08:44:39;;;;;;;12.65;10.07;;;204.90;2252.80;;;;;;5011556;28;20018;-62
2021/12/19 08:47:06;;;;;;;9.00;6.60;;;205.30;2252.80;;;;;;5011202;28;20088;-62
2021/12/19 08:49:31;;;;;;;12.80;6.72;;;205.40;2252.80;;;;;;4992997;28;20501;-62
2021/12/19 08:51:57;;;;;;;12.85;6.43;;;205.70;2252.80;;;;;;5011438;28;20036;-62
2021/12/19 08:54:23;;;;;;;16.25;11.93;;;230.60;2252.80;;;;;;5011168;28;20034;-62
2021/12/19 08:56:50;;;;;;;20.35;11.68;;;230.60;2252.80;;;;;;5011245;28;20022;-61
2021/12/19 08:59:16;;;;;;;84.47;57.08;;;230.60;2252.80;;;;;;5011375;28;20025;-62
2021/12/19 09:01:41;;;;;;;53.38;38.55;;;230.80;2252.80;;;;;;5010984;28;20049;-62
2021/12/19 09:04:07;;;;;;;15.20;9.52;;;256.40;2252.80;;;;;;5011159;28;20057;-61
2021/12/19 09:06:34;;;;;;;31.60;26.27;;;282.20;2048.00;;;;;;5010799;28;20030;-62
2021/12/19 09:09:02;;;;;;;11.02;7.70;;;307.90;1920.00;;;;;;5011187;28;20121;-62
2021/12/19 09:11:27;;;;;;;23.50;15.82;;;307.90;1894.40;;;;;;5011294;28;20032;-62
2021/12/19 09:13:53;;;;;;;11.57;8.80;;;332.90;1920.00;;;;;;5010845;28;20376;-66
2021/12/19 09:16:19;;;;;;;13.07;8.25;;;308.00;1920.00;;;;;;5010988;28;20033;-67
2021/12/19 09:18:45;;;;;;;424.60;345.35;;;307.60;1920.00;;;;;;5010615;28;20080;-69
2021/12/19 09:21:10;;;;;;;28.63;24.67;;;307.50;1868.80;;;;;;5010561;28;20026;-70
2021/12/19 09:23:36;;;;;;;119.88;89.45;;;333.00;1843.20;;;;;;5010968;28;20044;-66
2021/12/19 09:26:02;;;;;;;40.25;35.60;;;333.00;1792.00;;;;;;5010698;28;20021;-69
2021/12/19 09:28:28;;;;;;;15.85;10.27;;;307.90;1843.20;;;;;;5010960;28;20380;-68
2021/12/19 09:30:54;;;;;;;22.30;16.27;;;307.60;1843.20;;;;;;5010749;28;20025;-68
2021/12/19 09:33:22;;;;;;;26.98;20.70;;;282.50;1868.80;;;;;;5010529;28;20084;-68
2021/12/19 09:35:47;;;;;;;12.32;7.88;;;282.30;1868.80;;;;;;5010786;28;20049;-68
2021/12/19 09:38:14;;;;;;;10.93;7.13;;;281.90;1868.80;;;;;;5010511;28;20465;-68
2021/12/19 09:40:42;;;;;;;9.52;7.10;;;256.80;1894.40;;;;;;5010628;28;20029;-68
2021/12/19 09:43:31;;;;;;;14.05;8.60;;;256.60;1920.00;;;;;;5010586;28;20080;-68
2021/12/19 09:46:00;;;;;;;9.77;6.30;;;256.60;1945.60;;;;;;5010471;28;20053;-68
2021/12/19 09:48:26;;;;;;;9.40;5.30;;;256.50;1945.60;;;;;;5010548;28;20041;-67
2021/12/19 09:50:54;;;;;;;6.72;3.90;;;256.40;1945.60;;;;;;5010515;28;20057;-67
2021/12/19 09:53:20;;;;;;;8.90;5.05;;;256.20;1920.00;;;;;;5010590;28;20109;-68
2021/12/19 09:55:45;;;;;;;9.05;5.13;;;256.30;1945.60;;;;;;5010222;28;20022;-66
2021/12/19 09:58:11;;;;;;;8.82;4.22;;;256.30;1920.00;;;;;;5010248;28;20153;-67
2021/12/19 10:00:37;;;;;;;9.30;4.15;;;256.50;1920.00;;;;;;5010280;28;20022;-67
2021/12/19 10:03:03;;;;;;;10.88;5.25;;;256.70;1894.40;;;;;;5009992;28;20049;-66
2021/12/19 10:05:29;;;;;;;21.98;12.52;;;256.90;1868.80;;;;;;5010658;28;20026;-66
2021/12/19 10:07:57;;;;;;;19.05;13.02;;;281.60;1920.00;;;;;;5010266;28;20057;-68
2021/12/19 10:10:46;;;;;;;8.02;5.25;;;281.70;1868.80;;;;;;5010211;28;20049;-68
2021/12/19 10:13:12;;;;;;;22.88;15.43;;;282.00;1894.40;;;;;;5010002;28;20104;-68
2021/12/19 10:15:41;;;;;;;7.70;5.65;;;281.90;1868.80;;;;;;5010495;28;20022;-68
2021/12/19 10:18:16;;;;;;;5.85;3.85;;;281.90;1894.40;;;;;;5010235;28;20081;-69
2021/12/19 10:21:08;;;;;;;8.35;5.68;;;281.70;1894.40;;;;;;5009946;28;20103;-68
2021/12/19 10:23:36;;;;;;;8.27;4.57;;;282.00;1894.40;;;;;;5007011;28;20046;-68
2021/12/19 10:26:07;;;;;;;16.83;11.02;;;282.20;1894.40;;;;;;5009884;28;20054;-68
2021/12/19 10:28:47;;;;;;;25.98;14.65;;;282.20;1868.80;;;;;;5009818;28;20388;-68
2021/12/19 10:31:13;;;;;;;6.45;4.82;;;282.00;1868.80;;;;;;5010005;28;20506;-67
2021/12/19 10:33:39;;;;;;;7.00;4.78;;;281.90;1920.00;;;;;;5009869;28;20115;-68
2021/12/19 10:36:07;;;;;;;5.68;3.70;;;281.80;1920.00;;;;;;5009805;28;20030;-68
2021/12/19 10:38:36;;;;;;;9.40;6.03;;;256.90;1920.00;;;;;;5009627;28;20476;-68
2021/12/19 10:41:12;;;;;;;8.30;5.40;;;256.80;1894.40;;;;;;5008189;28;20034;-68
2021/12/19 10:44:07;;;;;;;6.75;3.85;;;256.70;1920.00;;;;;;5008554;28;20483;-70
2021/12/19 10:46:38;;;;;;;33.13;21.30;;;256.60;1971.20;;;;;;5008315;28;20232;-68
2021/12/19 10:49:19;;;;;;;57.28;40.50;;;256.50;1945.60;;;;;;5010182;28;20033;-69
2021/12/19 10:51:49;;;;;;;19.33;15.85;;;256.50;1971.20;;;;;;5016391;28;20041;-69
2021/12/19 10:54:14;;;;;;;30.05;19.55;;;256.60;1945.60;;;;;;5016423;28;20062;-69
2021/12/19 11:00:09;;;;;;;28.20;18.90;;;256.50;1996.80;;;;;;5016569;28;20041;-69
2021/12/19 11:02:41;;;;;;;7.53;6.13;;;256.70;2022.40;;;;;;5016259;28;20129;-69
2021/12/19 11:05:39;;;;;;;9.27;5.10;;;256.30;2022.40;;;;;;5016678;28;20109;-68
2021/12/19 11:08:09;;;;;;;7.90;5.43;;;256.20;2073.60;;;;;;5016697;28;20037;-69
2021/12/19 11:16:44;;;;;;;9.23;6.15;;;256.30;2073.60;;;;;;5017026;28;20490;-66
2021/12/19 11:19:10;;;;;;;8.82;5.90;;;256.40;2073.60;;;;;;5016814;28;20022;-69
2021/12/19 11:21:37;;;;;;;14.32;12.45;;;256.70;2048.00;;;;;;5016737;28;20127;-67
2021/12/19 11:24:14;;;;;;;9.98;6.78;;;256.30;2048.00;;;;;;5015860;28;20068;-66
2021/12/19 11:26:45;;;;;;;15.23;12.23;;;256.30;2048.00;;;;;;5016271;28;20052;-67
2021/12/19 11:29:12;;;;;;;15.75;14.07;;;256.30;2048.00;;;;;;5015851;28;20489;-69
2021/12/19 11:31:39;;;;;;;7.55;5.43;;;256.20;2048.00;;;;;;5015769;28;20018;-68
2021/12/19 11:34:31;;;;;;;8.50;4.97;;;256.10;2073.60;;;;;;5015480;28;20057;-67
2021/12/19 11:37:05;;;;;;;9.38;6.35;;;256.10;2073.60;;;;;;4955480;29;20102;-68
2021/12/19 11:39:39;;;;;;;11.70;7.22;;;256.00;2048.00;;;;;;4955668;29;20078;-68
2021/12/19 11:42:15;;;;;;;13.57;9.38;;;256.10;2073.60;;;;;;4955255;29;20047;-70
2021/12/19 11:44:48;;;;;;;6.88;4.68;;;256.00;2073.60;;;;;;4955201;29;20027;-69
2021/12/19 11:47:58;;;;;;;16.38;11.35;;;256.10;2099.20;;;;;;4955011;28;20051;-69
2021/12/19 11:50:29;;;;;;;12.73;9.63;;;256.30;2099.20;;;;;;4955141;29;20055;-68
2021/12/19 11:53:19;;;;;;;12.07;7.75;;;256.30;2073.60;;;;;;4955260;29;20485;-69
2021/12/19 11:58:51;;;;;;;9.85;6.47;;;256.10;2048.00;;;;;;4955098;28;20406;-70
2021/12/19 12:01:19;;;;;;;12.57;8.88;;;256.30;2073.60;;;;;;4954722;29;20050;-69
2021/12/19 12:03:48;;;;;;;11.45;6.05;;;256.10;2022.40;;;;;;4954740;29;20504;-68
2021/12/19 12:06:21;;;;;;;9.68;5.32;;;256.20;2048.00;;;;;;4955234;29;20118;-69
2021/12/19 12:09:14;;;;;;;6.80;4.15;;;256.30;2048.00;;;;;;4955010;29;20079;-69
2021/12/19 12:15:04;;;;;;;13.27;7.53;;;256.20;2022.40;;;;;;5011698;28;20084;-66
2021/12/19 12:17:35;;;;;;;16.95;11.73;;;256.30;2022.40;;;;;;5010812;28;20426;-67
2021/12/19 12:20:12;;;;;;;9.50;6.07;;;256.30;2022.40;;;;;;5010412;28;20483;-69
2021/12/19 12:22:45;;;;;;;8.10;5.18;;;256.30;1996.80;;;;;;5010070;28;20403;-68
2021/12/19 12:25:16;;;;;;;17.05;11.40;;;256.40;2073.60;;;;;;5010638;28;20508;-67
2021/12/19 12:27:42;;;;;;;9.05;6.18;;;256.40;1971.20;;;;;;5010204;28;20042;-67
2021/12/19 12:30:30;;;;;;;13.85;8.48;;;256.50;1945.60;;;;;;5010625;28;20121;-66
2021/12/19 12:32:58;;;;;;;10.48;5.25;;;256.50;1996.80;;;;;;5009726;28;20502;-67
2021/12/19 12:35:25;;;;;;;22.73;13.02;;;256.50;2022.40;;;;;;5009563;28;20054;-67
2021/12/19 12:37:53;;;;;;;21.58;13.48;;;256.50;1996.80;;;;;;5010187;28;20030;-69
2021/12/19 12:40:31;;;;;;;17.73;8.48;;;256.60;1971.20;;;;;;5010248;28;20053;-69
2021/12/19 12:43:01;;;;;;;9.23;4.50;;;256.50;1945.60;;;;;;5010343;28;20140;-69
2021/12/19 12:45:30;;;;;;;8.05;4.65;;;256.40;1945.60;;;;;;5010326;28;20659;-69
2021/12/19 12:47:56;;;;;;;13.52;8.48;;;256.40;1971.20;;;;;;5009693;28;20522;-68
2021/12/19 12:50:22;;;;;;;6.40;4.03;;;256.40;1996.80;;;;;;5012573;28;20033;-70
2021/12/19 12:52:48;;;;;;;21.25;14.05;;;256.50;1945.60;;;;;;5002698;28;20039;-67
2021/12/19 12:55:14;;;;;;;16.10;10.95;;;256.60;1945.60;;;;;;5029275;28;20038;-68
2021/12/19 12:57:43;;;;;;;25.65;17.23;;;256.60;1945.60;;;;;;5029806;28;20049;-66
2021/12/19 13:00:21;;;;;;;10.85;7.68;;;256.60;1945.60;;;;;;5029255;28;20379;-68
2021/12/19 13:02:55;;;;;;;31.95;15.93;;;256.70;1971.20;;;;;;5011299;28;20065;-67
2021/12/19 13:05:21;;;;;;;131.23;70.57;;;256.60;1920.00;;;;;;5029456;28;20044;-69
2021/12/19 13:07:46;;;;;;;51.42;30.33;;;256.50;1894.40;;;;;;5029558;28;20025;-69
2021/12/19 13:10:12;;;;;;;29.45;17.17;;;256.50;1920.00;;;;;;5029389;28;20143;-69
2021/12/19 13:12:41;;;;;;;83.50;57.30;;;256.50;1996.80;;;;;;5028605;28;20476;-68
2021/12/19 13:15:13;;;;;;;40.35;26.05;;;256.60;1868.80;;;;;;5029125;28;20690;-68
2021/12/19 13:17:59;;;;;;;17.10;9.68;;;256.70;1945.60;;;;;;5029386;28;20032;-67
2021/12/19 13:20:28;;;;;;;51.08;27.63;;;256.70;1894.40;;;;;;5029237;28;20120;-69
2021/12/19 13:22:59;;;;;;;16.73;9.40;;;256.80;1920.00;;;;;;5029113;28;20037;-68
2021/12/19 13:25:38;;;;;;;10.38;6.18;;;256.80;1920.00;;;;;;5028989;28;20025;-67
2021/12/19 13:28:06;;;;;;;7.15;4.15;;;256.80;1868.80;;;;;;5028376;28;20112;-69
2021/12/19 13:30:34;;;;;;;16.35;12.82;;;256.70;1843.20;;;;;;5029669;28;20519;-69
2021/12/19 13:33:08;;;;;;;10.52;6.18;;;256.70;1868.80;;;;;;5030821;28;20036;-69
2021/12/19 13:35:42;;;;;;;6.50;4.03;;;256.70;1996.80;;;;;;5030435;28;20049;-69
2021/12/19 13:38:10;;;;;;;7.15;4.30;;;256.70;1868.80;;;;;;5030608;28;20026;-68
2021/12/19 13:40:37;;;;;;;32.50;22.45;;;256.70;1868.80;;;;;;5030321;28;20053;-68
2021/12/19 13:43:06;;;;;;;12.20;9.32;;;256.70;1894.40;;;;;;5030065;28;20029;-69
2021/12/19 13:45:41;;;;;;;9.57;6.10;;;256.60;1868.80;;;;;;5030155;28;20017;-68